Time;durP1;ratioP1;P1;durP2;ratioP2;P2;SDS_P1;SDS_P2;PMS_P1;PMS_P2;Temp;Humidity;BMP_temperature;BMP_pressure;BME280_temperature;BME280_humidity;BME280_pressure;Samples;Min_cycle;Max_cycle;Signal;HPM_P1;HPM_P2
2023/10/12 00:00:41;;;;;;;11.18;2.05;;;;;;;12.48;100.00;101007.97;10388977;28;20045;-73
2023/10/12 00:05:45;;;;;;;8.18;1.85;;;;;;;12.44;100.00;101004.09;10392854;28;20085;-74
2023/10/12 00:10:46;;;;;;;14.20;2.00;;;;;;;12.43;100.00;101010.72;10396931;28;20056;-74
2023/10/12 00:15:47;;;;;;;11.57;1.80;;;;;;;12.42;100.00;101006.28;10393233;28;20042;-74
2023/10/12 00:20:56;;;;;;;9.20;1.58;;;;;;;12.39;100.00;101015.09;10400456;28;20042;-74
2023/10/12 00:25:58;;;;;;;11.48;1.65;;;;;;;12.42;100.00;101012.66;10401185;28;20084;-73
2023/10/12 00:31:05;;;;;;;10.88;2.05;;;;;;;12.43;100.00;101021.75;10404807;28;20124;-72
2023/10/12 00:36:19;;;;;;;12.60;2.40;;;;;;;12.45;100.00;101005.75;10402349;28;20069;-73
2023/10/12 00:41:23;;;;;;;10.15;2.40;;;;;;;12.42;100.00;101009.88;10405667;28;20064;-73
2023/10/12 00:51:26;;;;;;;14.82;3.00;;;;;;;12.43;100.00;101010.72;10402453;28;20045;-73
2023/10/12 00:56:28;;;;;;;6.47;1.52;;;;;;;12.46;100.00;101012.94;10399835;28;20030;-73
2023/10/12 01:01:31;;;;;;;5.47;1.50;;;;;;;12.43;100.00;101011.53;10402118;28;20037;-73
2023/10/12 01:06:33;;;;;;;11.10;2.28;;;;;;;12.09;100.00;100969.56;10401361;28;20046;-73
2023/10/12 01:11:37;;;;;;;10.18;1.70;;;;;;;12.32;100.00;101007.03;10394866;28;20518;-72
2023/10/12 01:17:15;;;;;;;15.27;2.78;;;;;;;12.30;100.00;101014.75;10399669;28;20050;-72
2023/10/12 01:22:08;;;;;;;11.85;2.05;;;;;;;12.32;100.00;101010.63;10394112;28;20037;-73
2023/10/12 01:27:12;;;;;;;8.02;2.50;;;;;;;12.35;100.00;101014.78;10402785;28;20045;-71
2023/10/12 01:37:22;;;;;;;12.85;2.17;;;;;;;12.29;100.00;101015.84;10403218;28;20060;-72
2023/10/12 01:42:41;;;;;;;9.60;2.47;;;;;;;12.19;100.00;101016.56;10402084;28;20061;-73
2023/10/12 01:47:41;;;;;;;9.32;2.22;;;;;;;12.25;100.00;101034.84;10395189;28;20049;-72
2023/10/12 01:52:46;;;;;;;7.10;2.17;;;;;;;12.23;100.00;101034.28;10403943;28;20037;-73
2023/10/12 01:57:55;;;;;;;8.48;1.85;;;;;;;12.16;100.00;101038.34;10388909;28;20045;-72
2023/10/12 02:03:12;;;;;;;10.85;2.28;;;;;;;12.18;100.00;101044.44;10388615;28;20045;-73
2023/10/12 02:08:16;;;;;;;14.93;2.33;;;;;;;12.11;100.00;101042.72;10400346;28;20489;-73
2023/10/12 02:13:17;;;;;;;11.52;2.92;;;;;;;12.16;100.00;101050.22;10398004;28;20106;-73
2023/10/12 02:18:18;;;;;;;16.60;3.03;;;;;;;12.15;100.00;101047.72;10400554;28;20033;-73
2023/10/12 02:23:21;;;;;;;18.33;3.33;;;;;;;12.15;100.00;101053.22;10395581;28;20076;-73
2023/10/12 02:28:23;;;;;;;10.88;3.53;;;;;;;12.11;100.00;101053.78;10401970;28;20045;-73
2023/10/12 02:33:27;;;;;;;8.23;3.30;;;;;;;12.08;100.00;101064.50;10394718;28;20069;-73
2023/10/12 02:38:28;;;;;;;14.52;2.55;;;;;;;12.05;100.00;101067.75;10386959;28;20132;-72
2023/10/12 02:43:31;;;;;;;11.65;3.20;;;;;;;12.00;100.00;101070.47;10397015;28;20437;-72
2023/10/12 02:48:36;;;;;;;12.60;2.63;;;;;;;11.99;100.00;101071.53;10401387;28;20115;-72
2023/10/12 02:53:39;;;;;;;12.13;2.78;;;;;;;11.65;100.00;101016.53;10394456;28;20145;-72
2023/10/12 02:58:44;;;;;;;12.60;2.72;;;;;;;11.88;100.00;101065.91;10401037;28;20038;-72
2023/10/12 03:03:48;;;;;;;14.90;2.92;;;;;;;11.89;100.00;101075.03;10393671;28;20049;-73
2023/10/12 03:14:26;;;;;;;17.15;3.60;;;;;;;11.82;100.00;101074.38;10386452;28;20057;-72
2023/10/12 03:19:26;;;;;;;16.60;4.35;;;;;;;11.84;100.00;101085.97;10382631;28;20049;-72
2023/10/12 03:24:43;;;;;;;24.98;5.88;;;;;;;11.81;100.00;101084.56;10394086;28;20042;-73
2023/10/12 03:29:43;;;;;;;20.70;3.97;;;;;;;11.76;100.00;101092.81;10397111;28;20033;-73
2023/10/12 03:34:53;;;;;;;15.65;4.72;;;;;;;11.64;100.00;101081.88;10393633;28;20038;-72
2023/10/12 03:39:59;;;;;;;16.75;3.88;;;;;;;11.62;100.00;101094.28;10397478;28;20038;-72
2023/10/12 03:45:23;;;;;;;21.90;3.92;;;;;;;11.64;100.00;101111.41;10394745;28;20045;-72
2023/10/12 03:50:26;;;;;;;22.40;3.47;;;;;;;11.59;100.00;101105.78;10393346;28;20050;-72
2023/10/12 03:55:28;;;;;;;19.38;3.38;;;;;;;11.52;100.00;101117.84;10396063;28;20037;-73
2023/10/12 04:00:41;;;;;;;20.65;3.70;;;;;;;11.50;100.00;101121.97;10392648;28;20115;-72
2023/10/12 04:21:09;;;;;;;9.05;2.80;;;;;;;11.40;100.00;101136.41;10390731;28;20050;-72
2023/10/12 04:31:20;;;;;;;11.10;3.58;;;;;;;11.34;100.00;101137.44;10391425;28;20042;-73
2023/10/12 04:41:47;;;;;;;12.43;2.85;;;;;;;11.29;100.00;101142.88;10390215;28;20046;-72
2023/10/12 04:46:47;;;;;;;16.08;3.30;;;;;;;11.29;100.00;101153.91;10393217;28;20101;-72
2023/10/12 04:52:04;;;;;;;13.75;2.80;;;;;;;11.24;100.00;101153.81;10395081;28;20045;-72
2023/10/12 05:07:27;;;;;;;18.17;3.10;;;;;;;11.22;100.00;101200.09;10403993;28;20525;-72
2023/10/12 05:12:28;;;;;;;17.33;3.53;;;;;;;11.20;100.00;101192.06;10399670;28;20073;-72
2023/10/12 05:17:28;;;;;;;15.95;3.08;;;;;;;11.14;100.00;101187.56;10384192;28;20501;-73
2023/10/12 05:22:29;;;;;;;16.40;3.53;;;;;;;11.23;100.00;101202.59;10400537;28;20053;-72
2023/10/12 05:27:38;;;;;;;11.10;3.63;;;;;;;11.23;100.00;101201.75;10400919;28;20037;-72
2023/10/12 05:32:43;;;;;;;23.58;3.28;;;;;;;11.16;100.00;101209.34;10400789;28;20041;-73
2023/10/12 05:37:49;;;;;;;20.70;3.72;;;;;;;11.09;100.00;101215.03;10400620;28;20037;-73
2023/10/12 05:42:50;;;;;;;13.30;3.42;;;;;;;11.01;100.00;101215.44;10397659;28;20046;-73
2023/10/12 05:47:52;;;;;;;15.07;3.75;;;;;;;10.91;100.00;101232.63;10400637;28;20409;-73
2023/10/12 05:52:59;;;;;;;13.95;4.75;;;;;;;10.82;100.00;101228.59;10400426;28;20037;-73
2023/10/12 05:58:09;;;;;;;10.60;3.92;;;;;;;10.73;100.00;101227.31;10397949;28;20045;-73
2023/10/12 06:03:15;;;;;;;13.07;4.00;;;;;;;10.60;100.00;101226.53;10398442;28;20042;-73
2023/10/12 06:08:16;;;;;;;17.57;3.57;;;;;;;10.49;100.00;101231.00;10399950;28;20042;-72
2023/10/12 06:13:17;;;;;;;17.70;3.92;;;;;;;10.43;100.00;101226.47;10399549;28;20486;-73
2023/10/12 06:18:30;;;;;;;8.85;3.80;;;;;;;10.38;100.00;101222.81;10397936;28;20033;-73
2023/10/12 06:23:31;;;;;;;9.40;3.58;;;;;;;10.29;100.00;101212.19;10397826;28;20500;-72
2023/10/12 06:28:31;;;;;;;15.68;3.85;;;;;;;9.99;100.00;101186.75;10398920;28;20047;-72
2023/10/12 06:33:32;;;;;;;13.40;3.40;;;;;;;10.32;100.00;101215.53;10398887;28;20034;-73
2023/10/12 06:38:39;;;;;;;19.88;4.28;;;;;;;10.37;100.00;101223.88;10396623;28;20042;-73
2023/10/12 06:48:43;;;;;;;9.98;4.22;;;;;;;10.52;100.00;101229.69;10397000;28;20258;-72
2023/10/12 06:53:51;;;;;;;12.57;4.40;;;;;;;10.61;100.00;101238.41;10398957;28;20112;-73
2023/10/12 07:04:25;;;;;;;14.15;5.38;;;;;;;10.65;100.00;101272.63;10396365;28;20117;-71
2023/10/12 07:09:39;;;;;;;16.90;5.47;;;;;;;10.65;100.00;101273.47;10398495;28;20469;-72
2023/10/12 07:20:25;;;;;;;26.88;6.70;;;;;;;10.67;100.00;101293.31;10380508;28;20042;-73
2023/10/12 07:25:26;;;;;;;18.20;5.30;;;;;;;10.75;100.00;101300.38;10383934;28;20041;-73
2023/10/12 07:30:30;;;;;;;21.17;7.00;;;;;;;10.84;100.00;101300.81;10378125;28;20033;-73
2023/10/12 07:35:32;;;;;;;18.00;6.75;;;;;;;10.94;100.00;101314.78;10374000;28;20517;-73
2023/10/12 07:40:36;;;;;;;16.98;7.25;;;;;;;11.07;100.00;101322.72;10399620;28;20042;-72
2023/10/12 07:45:38;;;;;;;30.58;5.78;;;;;;;11.17;100.00;101329.53;10388261;28;20041;-73
2023/10/12 07:50:45;;;;;;;17.02;5.75;;;;;;;11.20;100.00;101315.25;10398060;28;20130;-73
2023/10/12 07:55:50;;;;;;;11.10;4.50;;;;;;;11.43;100.00;101330.81;10386431;28;20080;-73
2023/10/12 08:01:19;;;;;;;18.23;3.85;;;;;;;11.52;100.00;101330.16;10395970;28;20073;-73
2023/10/12 08:06:15;;;;;;;14.50;3.28;;;;;;;11.63;100.00;101327.56;10395941;28;20053;-68
2023/10/12 08:11:27;;;;;;;10.82;3.30;;;;;;;11.74;100.00;101332.19;10398003;28;20108;-74
2023/10/12 08:16:28;;;;;;;8.25;2.20;;;;;;;11.87;100.00;101340.13;10395350;28;20092;-73
2023/10/12 08:21:37;;;;;;;13.07;2.58;;;;;;;11.90;100.00;101336.88;10397849;28;20057;-73
2023/10/12 08:31:44;;;;;;;8.50;2.28;;;;;;;12.09;100.00;101340.22;10397695;28;20038;-73
2023/10/12 08:38:11;;;;;;;16.50;2.65;;;;;;;12.28;100.00;101350.97;10394103;28;20037;-73
2023/10/12 08:52:32;;;;;;;9.52;2.20;;;;;;;12.86;100.00;101359.75;10386428;28;20105;-74
2023/10/12 08:57:52;;;;;;;8.07;1.52;;;;;;;13.03;100.00;101368.78;10393946;28;20072;-73
2023/10/12 09:02:52;;;;;;;11.00;2.40;;;;;;;13.00;100.00;101368.47;10379992;28;20064;-74
2023/10/12 09:13:17;;;;;;;4.80;1.33;;;;;;;13.69;100.00;101370.59;10390706;28;20042;-76
2023/10/12 09:18:17;;;;;;;8.73;1.50;;;;;;;13.78;100.00;101363.47;10389622;28;20040;-76
2023/10/12 09:23:19;;;;;;;4.85;1.00;;;;;;;13.88;100.00;101373.81;10384436;28;20401;-76
2023/10/12 09:28:25;;;;;;;6.88;0.90;;;;;;;13.82;100.00;101372.91;10380258;28;20041;-76
2023/10/12 09:38:45;;;;;;;6.78;0.88;;;;;;;13.98;100.00;101367.53;10379926;28;20067;-76
2023/10/12 09:43:45;;;;;;;7.60;0.93;;;;;;;14.11;100.00;101380.91;10382983;28;20490;-77
2023/10/12 09:48:46;;;;;;;12.10;2.53;;;;;;;14.37;100.00;101375.53;10384990;28;20060;-76
2023/10/12 09:53:57;;;;;;;10.10;1.25;;;;;;;14.43;100.00;101391.09;10388963;28;20501;-78
2023/10/12 10:04:27;;;;;;;4.05;0.85;;;;;;;14.48;100.00;101380.03;10381573;28;20041;-77
2023/10/12 10:09:37;;;;;;;10.85;1.00;;;;;;;14.83;100.00;101379.41;10397150;28;20042;-77
2023/10/12 10:14:44;;;;;;;4.80;1.25;;;;;;;15.15;100.00;101375.63;10382099;28;20471;-78
2023/10/12 10:19:51;;;;;;;10.93;1.52;;;;;;;15.22;100.00;101372.63;10391147;28;20058;-78
2023/10/12 10:25:04;;;;;;;6.45;0.88;;;;;;;15.37;100.00;101361.53;10383689;28;20069;-78
2023/10/12 10:30:36;;;;;;;6.53;2.17;;;;;;;15.58;100.00;101361.56;10378168;28;20072;-77
2023/10/12 10:36:10;;;;;;;7.00;0.90;;;;;;;15.62;100.00;101348.81;10395918;28;20041;-77
2023/10/12 10:41:23;;;;;;;4.72;0.80;;;;;;;15.76;100.00;101363.84;10385297;28;20103;-78
2023/10/12 10:46:26;;;;;;;5.93;0.77;;;;;;;15.90;100.00;101376.06;10388802;28;20029;-78
2023/10/12 10:51:32;;;;;;;7.88;0.90;;;;;;;16.01;100.00;101376.88;10393303;28;20038;-76
2023/10/12 10:56:36;;;;;;;6.57;2.23;;;;;;;16.17;100.00;101374.94;10376204;28;20054;-75
2023/10/12 11:01:40;;;;;;;8.43;0.90;;;;;;;16.23;100.00;101357.13;10368704;28;20569;-75
2023/10/12 11:06:43;;;;;;;9.05;0.80;;;;;;;16.22;100.00;101377.69;10386583;28;20042;-75
2023/10/12 11:11:48;;;;;;;5.18;0.88;;;;;;;16.15;100.00;101366.03;10392159;28;20037;-76
2023/10/12 11:16:50;;;;;;;9.00;1.70;;;;;;;16.25;100.00;101371.59;10392438;28;20042;-77
2023/10/12 11:21:57;;;;;;;5.50;1.10;;;;;;;16.46;100.00;101374.31;10375717;28;20046;-77
2023/10/12 11:27:01;;;;;;;16.40;1.55;;;;;;;16.48;100.00;101349.84;10393493;28;20061;-74
2023/10/12 11:32:09;;;;;;;9.88;0.93;;;;;;;16.51;100.00;101346.50;10382856;28;20057;-76
2023/10/12 11:37:09;;;;;;;7.82;2.10;;;;;;;16.46;100.00;101354.88;10368303;28;20109;-77
2023/10/12 11:42:12;;;;;;;8.90;1.17;;;;;;;16.46;100.00;101347.34;10375908;28;20501;-77
2023/10/12 11:47:23;;;;;;;7.57;1.08;;;;;;;16.45;100.00;101359.56;10375445;28;20438;-77
2023/10/12 11:52:32;;;;;;;9.23;1.45;;;;;;;15.85;100.00;101269.72;10380365;28;20050;-77
2023/10/12 11:57:33;;;;;;;8.20;1.98;;;;;;;16.26;100.00;101345.44;10378251;28;20044;-78
2023/10/12 12:02:36;;;;;;;4.55;0.93;;;;;;;16.32;100.00;101344.31;10374025;28;20083;-77
2023/10/12 12:07:36;;;;;;;5.28;0.90;;;;;;;16.29;100.00;101344.06;10375248;28;20037;-78
2023/10/12 12:12:38;;;;;;;7.45;1.10;;;;;;;16.17;100.00;101347.16;10376861;28;20084;-77
2023/10/12 12:17:39;;;;;;;11.20;1.40;;;;;;;16.02;100.00;101342.47;10384632;28;20049;-77
2023/10/12 12:22:42;;;;;;;3.83;0.95;;;;;;;15.80;100.00;101350.25;10396738;28;20046;-77
2023/10/12 12:27:48;;;;;;;9.18;1.48;;;;;;;15.59;100.00;101336.31;10392701;28;20045;-77
2023/10/12 12:32:49;;;;;;;4.05;1.23;;;;;;;15.62;100.00;101352.41;10395225;28;20501;-77
2023/10/12 12:37:50;;;;;;;9.55;0.82;;;;;;;15.53;100.00;101349.34;10381090;28;20041;-77
2023/10/12 12:42:50;;;;;;;9.02;1.52;;;;;;;15.41;100.00;101348.78;10382124;28;20053;-77
2023/10/12 12:47:51;;;;;;;6.32;1.38;;;;;;;15.23;100.00;101340.97;10374837;28;20762;-77
2023/10/12 12:52:51;;;;;;;4.10;0.75;;;;;;;15.09;100.00;101349.84;10389621;28;20042;-77
2023/10/12 12:57:52;;;;;;;7.75;0.90;;;;;;;15.10;100.00;101329.31;10393509;28;20049;-77
2023/10/12 13:02:52;;;;;;;7.75;0.80;;;;;;;15.17;100.00;101325.44;10382668;28;20053;-76
2023/10/12 13:07:53;;;;;;;4.07;0.77;;;;;;;15.20;100.00;101316.59;10396055;28;20034;-77
2023/10/12 13:12:53;;;;;;;6.72;0.57;;;;;;;15.17;100.00;101322.66;10391342;28;20049;-76
2023/10/12 13:17:56;;;;;;;6.10;1.13;;;;;;;15.21;100.00;101318.25;10395209;28;20037;-76
2023/10/12 13:22:56;;;;;;;5.53;1.20;;;;;;;15.30;100.00;101325.75;10389894;28;20042;-76
2023/10/12 13:27:57;;;;;;;8.07;1.23;;;;;;;15.44;100.00;101328.81;10396122;28;20090;-76
2023/10/12 13:32:59;;;;;;;6.78;0.90;;;;;;;15.31;100.00;101307.97;10389343;28;20072;-72
2023/10/12 13:38:03;;;;;;;5.07;0.73;;;;;;;15.29;100.00;101320.47;10391102;28;20041;-76
2023/10/12 13:43:14;;;;;;;6.43;1.33;;;;;;;15.17;100.00;101317.13;10401765;28;20048;-77
2023/10/12 13:48:21;;;;;;;6.20;1.05;;;;;;;15.01;100.00;101313.50;10396223;28;20034;-76
2023/10/12 13:53:23;;;;;;;5.78;1.35;;;;;;;14.88;100.00;101320.38;10396304;28;20034;-76
2023/10/12 13:58:26;;;;;;;8.60;0.75;;;;;;;14.77;100.00;101318.69;10402885;28;20053;-77
2023/10/12 14:03:29;;;;;;;7.20;1.10;;;;;;;14.69;100.00;101304.22;10388976;28;20034;-78
2023/10/12 14:08:32;;;;;;;5.78;1.10;;;;;;;14.66;100.00;101296.47;10395268;28;20060;-77
2023/10/12 14:13:33;;;;;;;5.85;1.00;;;;;;;14.60;100.00;101278.16;10402257;28;20551;-77
2023/10/12 14:18:33;;;;;;;7.70;1.10;;;;;;;14.66;100.00;101282.63;10378805;28;20130;-76
2023/10/12 14:23:39;;;;;;;8.75;1.70;;;;;;;14.73;100.00;101285.94;10400711;28;20064;-77
2023/10/12 14:28:41;;;;;;;10.07;2.05;;;;;;;14.71;100.00;101293.72;10396961;28;20037;-77
2023/10/12 14:33:42;;;;;;;12.00;2.03;;;;;;;14.51;100.00;101285.28;10396515;28;20079;-84
2023/10/12 14:38:44;;;;;;;5.82;0.98;;;;;;;14.27;100.00;101277.44;10376993;28;20045;-77
2023/10/12 14:43:48;;;;;;;7.47;1.33;;;;;;;14.19;100.00;101302.88;10397820;28;20441;-78
2023/10/12 14:48:51;;;;;;;6.13;1.00;;;;;;;14.03;100.00;101303.88;10393772;28;20038;-80
2023/10/12 14:53:51;;;;;;;8.60;1.85;;;;;;;13.96;100.00;101295.81;10395619;28;20076;-79
2023/10/12 14:58:52;;;;;;;8.38;1.10;;;;;;;13.78;100.00;101297.06;10397950;28;20045;-77
2023/10/12 15:03:54;;;;;;;6.40;1.08;;;;;;;13.44;100.00;101266.94;10376666;28;20092;-75
2023/10/12 15:08:57;;;;;;;8.00;2.08;;;;;;;13.28;100.00;101288.03;10394232;28;20040;-74
2023/10/12 15:13:58;;;;;;;8.02;0.95;;;;;;;13.22;100.00;101275.25;10395069;28;20041;-74
2023/10/12 15:18:58;;;;;;;8.43;2.28;;;;;;;13.22;100.00;101283.56;10396181;28;20042;-75
2023/10/12 15:23:59;;;;;;;6.30;1.95;;;;;;;13.18;100.00;101278.81;10400061;28;20045;-74
2023/10/12 15:28:59;;;;;;;10.77;2.10;;;;;;;13.07;100.00;101275.97;10392509;28;20092;-75
2023/10/12 15:34:00;;;;;;;9.73;1.73;;;;;;;13.00;100.00;101278.13;10368079;28;20046;-74
2023/10/12 15:39:14;;;;;;;15.15;2.58;;;;;;;12.93;100.00;101275.53;10386952;28;20050;-75
2023/10/12 15:44:14;;;;;;;17.20;2.83;;;;;;;12.88;100.00;101277.44;10382060;28;20055;-75
2023/10/12 15:49:15;;;;;;;7.18;2.17;;;;;;;12.87;100.00;101272.97;10378066;28;20052;-75
2023/10/12 15:54:16;;;;;;;6.85;1.60;;;;;;;12.84;100.00;101268.81;10387439;28;20042;-75
2023/10/12 15:59:16;;;;;;;10.38;2.22;;;;;;;12.82;100.00;101267.41;10383909;28;20121;-74
2023/10/12 16:04:19;;;;;;;5.45;1.50;;;;;;;12.80;100.00;101269.59;10380520;28;20038;-73
2023/10/12 16:09:24;;;;;;;4.10;1.70;;;;;;;12.77;100.00;101275.63;10375572;28;20044;-74
2023/10/12 16:14:25;;;;;;;7.57;1.50;;;;;;;12.78;100.00;101271.78;10386162;28;20045;-74
2023/10/12 16:19:26;;;;;;;7.70;1.80;;;;;;;12.78;100.00;101266.25;10393806;28;20046;-73
2023/10/12 16:24:26;;;;;;;13.23;3.00;;;;;;;12.69;100.00;101258.44;10395883;28;20050;-75
2023/10/12 16:29:27;;;;;;;7.18;1.70;;;;;;;12.70;100.00;101262.03;10393558;28;20038;-74
2023/10/12 16:34:28;;;;;;;12.05;2.10;;;;;;;12.68;100.00;101258.69;10360381;28;20041;-74
2023/10/12 16:39:29;;;;;;;11.88;2.00;;;;;;;12.65;100.00;101260.06;10386433;28;20490;-75
2023/10/12 16:44:30;;;;;;;10.23;1.67;;;;;;;12.58;100.00;101250.28;10395519;28;20516;-74
2023/10/12 16:49:33;;;;;;;7.50;1.95;;;;;;;12.54;100.00;101243.59;10397658;28;20059;-74
2023/10/12 16:54:35;;;;;;;11.77;1.92;;;;;;;12.55;100.00;101250.78;10396528;28;20034;-74
2023/10/12 16:59:36;;;;;;;16.05;3.28;;;;;;;12.47;100.00;101243.81;10399969;28;20045;-74
2023/10/12 17:04:46;;;;;;;8.43;2.78;;;;;;;12.44;100.00;101260.88;10397663;28;20042;-74
2023/10/12 17:09:47;;;;;;;14.25;3.55;;;;;;;12.43;100.00;101259.22;10407627;28;20030;-73
2023/10/12 17:14:47;;;;;;;10.73;3.95;;;;;;;12.38;100.00;101262.78;10402991;28;20041;-74
2023/10/12 17:19:48;;;;;;;14.10;4.07;;;;;;;12.38;100.00;101256.38;10404059;28;20037;-73
2023/10/12 17:24:49;;;;;;;14.15;4.38;;;;;;;12.38;100.00;101256.38;10402221;28;20060;-74
2023/10/12 17:29:49;;;;;;;10.13;3.13;;;;;;;12.37;100.00;101257.50;10402671;28;20091;-73
2023/10/12 17:34:51;;;;;;;7.97;3.25;;;;;;;12.39;100.00;101263.59;10402096;28;20123;-75
2023/10/12 17:39:53;;;;;;;9.15;3.55;;;;;;;12.34;100.00;101253.34;10402105;28;20119;-73
2023/10/12 17:44:53;;;;;;;10.63;4.18;;;;;;;12.31;100.00;101257.41;10401045;28;20127;-72
2023/10/12 17:49:55;;;;;;;12.45;4.38;;;;;;;12.30;100.00;101265.97;10406021;28;20382;-72
2023/10/12 17:54:55;;;;;;;14.07;4.22;;;;;;;12.29;100.00;101256.84;10400358;28;20033;-73
2023/10/12 17:59:57;;;;;;;8.55;4.07;;;;;;;12.30;100.00;101272.31;10402466;28;20419;-73
2023/10/12 18:04:58;;;;;;;11.57;4.43;;;;;;;12.32;100.00;101259.09;10400173;28;20037;-73
2023/10/12 18:09:58;;;;;;;8.10;4.63;;;;;;;12.32;100.00;101255.50;10401541;28;20056;-73
2023/10/12 18:14:59;;;;;;;11.75;4.80;;;;;;;12.32;100.00;101242.53;10403902;28;20046;-74
2023/10/12 18:19:59;;;;;;;12.55;4.88;;;;;;;12.34;100.00;101235.91;10399004;28;20037;-72
2023/10/12 18:25:00;;;;;;;18.83;5.68;;;;;;;12.35;100.00;101229.31;10401146;28;20049;-74
2023/10/12 18:30:00;;;;;;;18.63;6.45;;;;;;;12.34;100.00;101227.63;10399310;28;20411;-73
2023/10/12 18:35:03;;;;;;;12.90;6.25;;;;;;;12.32;100.00;101228.72;10399364;28;20049;-74
2023/10/12 18:40:04;;;;;;;16.20;6.15;;;;;;;12.35;100.00;101234.81;10394771;28;20057;-73
2023/10/12 18:45:06;;;;;;;12.15;5.88;;;;;;;12.40;100.00;101221.06;10393540;28;20072;-72
2023/10/12 18:50:07;;;;;;;13.35;5.55;;;;;;;12.35;100.00;101210.81;10396488;28;20038;-74
2023/10/12 18:55:08;;;;;;;11.13;5.53;;;;;;;12.37;100.00;101210.56;10379389;28;20038;-73
2023/10/12 19:00:15;;;;;;;10.90;4.93;;;;;;;12.35;100.00;101212.75;10394684;28;20042;-73
2023/10/12 19:05:16;;;;;;;12.98;6.07;;;;;;;12.31;100.00;101210.47;10399789;28;20183;-73
2023/10/12 19:10:18;;;;;;;10.57;5.25;;;;;;;12.34;100.00;101205.53;10393832;28;20034;-74
2023/10/12 19:15:19;;;;;;;9.30;5.57;;;;;;;12.38;100.00;101212.22;10399903;28;20042;-74
2023/10/12 19:20:19;;;;;;;17.67;7.10;;;;;;;12.41;100.00;101207.00;10405342;28;20072;-74
2023/10/12 19:25:20;;;;;;;14.52;6.35;;;;;;;12.31;100.00;101188.41;10395819;28;20037;-74
2023/10/12 19:30:21;;;;;;;17.98;8.25;;;;;;;12.32;100.00;101198.34;10396765;28;20041;-74
2023/10/12 19:35:22;;;;;;;13.85;7.10;;;;;;;12.30;100.00;101192.25;10396225;28;20838;-74
2023/10/12 19:40:24;;;;;;;19.27;7.55;;;;;;;12.30;100.00;101183.97;10358871;28;20104;-74
2023/10/12 19:45:25;;;;;;;18.42;7.70;;;;;;;12.26;100.00;101155.22;10351921;28;20540;-75
2023/10/12 19:50:26;;;;;;;21.17;7.60;;;;;;;12.35;100.00;101166.63;10349220;28;20097;-76
2023/10/12 19:55:30;;;;;;;18.60;8.15;;;;;;;12.34;100.00;101150.31;10352122;28;20051;-75
2023/10/12 20:05:35;;;;;;;21.00;8.63;;;;;;;12.28;100.00;101157.72;10349542;28;20057;-74
2023/10/12 20:10:36;;;;;;;23.35;9.48;;;;;;;12.27;100.00;101143.06;10351300;28;20042;-74
2023/10/12 20:15:37;;;;;;;23.45;10.10;;;;;;;12.29;100.00;101149.16;10350417;28;20045;-76
2023/10/12 20:20:39;;;;;;;21.45;9.60;;;;;;;12.28;100.00;101136.47;10350533;28;20041;-75
2023/10/12 20:25:43;;;;;;;18.23;9.90;;;;;;;12.31;100.00;101146.97;10350444;28;20062;-75
2023/10/12 20:30:47;;;;;;;24.30;9.63;;;;;;;12.30;100.00;101134.28;10350202;28;20077;-76
2023/10/12 20:35:48;;;;;;;26.70;10.65;;;;;;;12.34;100.00;101139.28;10337156;28;20144;-75
2023/10/12 20:40:51;;;;;;;27.08;12.18;;;;;;;12.30;100.00;101145.34;10385738;28;20064;-75
2023/10/12 20:45:57;;;;;;;26.10;12.23;;;;;;;12.25;100.00;101139.75;10404914;28;20042;-75
2023/10/12 20:50:59;;;;;;;32.63;13.30;;;;;;;12.37;100.00;101133.25;10401772;28;20439;-75
2023/10/12 20:56:07;;;;;;;28.10;12.95;;;;;;;12.32;100.00;101114.72;10388254;28;20037;-75
2023/10/12 21:01:19;;;;;;;29.45;12.48;;;;;;;12.42;100.00;101125.00;10367355;28;20045;-75
2023/10/12 21:06:26;;;;;;;33.38;12.98;;;;;;;12.43;100.00;101115.63;10400818;28;20053;-75
2023/10/12 21:11:31;;;;;;;32.80;14.43;;;;;;;12.42;100.00;101102.91;10399667;28;20049;-76
2023/10/12 21:16:32;;;;;;;30.25;15.05;;;;;;;12.44;100.00;101101.59;10400550;28;20073;-75
2023/10/12 21:21:33;;;;;;;39.27;15.33;;;;;;;12.46;100.00;101088.34;10401765;28;20120;-76
2023/10/12 21:26:33;;;;;;;33.47;13.73;;;;;;;12.46;100.00;101095.78;10399095;28;20037;-75
2023/10/12 21:31:35;;;;;;;37.20;15.30;;;;;;;12.52;100.00;101091.97;10398488;28;20042;-76
2023/10/12 21:36:41;;;;;;;49.67;18.20;;;;;;;12.55;100.00;101085.06;10384366;28;20033;-75
2023/10/12 21:41:41;;;;;;;41.05;17.75;;;;;;;12.56;100.00;101071.00;10392567;28;20037;-75
2023/10/12 21:46:42;;;;;;;60.05;18.65;;;;;;;12.59;100.00;101069.66;10379982;28;20054;-76
2023/10/12 21:51:45;;;;;;;47.13;17.58;;;;;;;12.60;100.00;101061.09;10398639;28;20037;-75
2023/10/12 21:56:46;;;;;;;52.17;19.73;;;;;;;12.61;100.00;101051.75;10381455;28;20074;-76
2023/10/12 22:02:00;;;;;;;43.50;18.85;;;;;;;12.65;100.00;101049.25;10393057;28;20489;-76
2023/10/12 22:07:06;;;;;;;51.15;19.60;;;;;;;12.68;100.00;101040.47;10372191;28;20038;-76
2023/10/12 22:12:08;;;;;;;51.92;18.75;;;;;;;12.70;100.00;101032.75;10398828;28;20046;-76
2023/10/12 22:17:09;;;;;;;54.00;20.13;;;;;;;12.73;100.00;101026.69;10397631;28;20045;-75
2023/10/12 22:22:11;;;;;;;56.58;22.25;;;;;;;12.75;100.00;101016.19;10399982;28;20037;-75
2023/10/12 22:27:14;;;;;;;61.88;20.90;;;;;;;12.77;100.00;101016.75;10401015;28;20494;-76
2023/10/12 22:32:14;;;;;;;59.85;21.05;;;;;;;12.81;100.00;101011.53;10402831;28;20060;-75
2023/10/12 22:37:16;;;;;;;59.47;21.25;;;;;;;12.82;100.00;101008.53;10405158;28;20042;-75
2023/10/12 22:42:17;;;;;;;58.15;24.67;;;;;;;12.85;100.00;100999.69;10396527;28;20092;-74
2023/10/12 22:47:18;;;;;;;60.88;21.60;;;;;;;12.90;100.00;100993.38;10399003;28;20068;-74
2023/10/12 22:52:18;;;;;;;60.17;20.70;;;;;;;12.93;100.00;100995.59;10403424;28;20085;-75
2023/10/12 22:57:19;;;;;;;55.60;20.38;;;;;;;12.86;100.00;100984.78;10398225;28;20041;-75
2023/10/12 23:02:19;;;;;;;57.15;21.45;;;;;;;13.00;100.00;100987.06;10400558;28;20046;-75
2023/10/12 23:07:20;;;;;;;72.38;24.13;;;;;;;13.04;100.00;101000.09;10399053;28;20033;-74
2023/10/12 23:12:20;;;;;;;63.83;22.10;;;;;;;13.10;100.00;100995.41;10387004;28;20030;-75
2023/10/12 23:17:21;;;;;;;95.00;26.98;;;;;;;13.11;100.00;100995.16;10403762;28;20034;-75
2023/10/12 23:27:29;;;;;;;;;;;;;;;13.18;100.00;100975.53;10392503;28;20045;-75
2023/10/12 23:32:30;;;;;;;82.80;26.25;;;;;;;13.23;100.00;100983.03;10394150;28;20364;-75
2023/10/12 23:37:55;;;;;;;86.30;27.20;;;;;;;13.25;100.00;100978.91;10395337;28;20044;-75
2023/10/12 23:42:53;;;;;;;86.93;28.45;;;;;;;13.29;100.00;100969.00;10385236;28;20046;-74
2023/10/12 23:48:07;;;;;;;102.05;28.92;;;;;;;13.35;100.00;100966.25;10385651;28;20525;-74
2023/10/12 23:53:08;;;;;;;102.03;28.23;;;;;;;13.38;100.00;100954.66;10370171;28;20395;-74
2023/10/12 23:58:12;;;;;;;111.13;30.45;;;;;;;13.42;100.00;100950.25;10381512;28;20043;-74
